Time;durP1;ratioP1;P1;durP2;ratioP2;P2;SDS_P1;SDS_P2;PMS_P1;PMS_P2;Temp;Humidity;BMP_temperature;BMP_pressure;BME280_temperature;BME280_humidity;BME280_pressure;Samples;Min_cycle;Max_cycle;Signal;HPM_P1;HPM_P2
2023/10/05 00:00:33;;;;;;;6.72;2.15;;;;;;;13.42;nan;100919.56;2092293;28;20045;-72
2023/10/05 00:01:45;;;;;;;8.25;2.20;;;;;;;13.44;nan;100922.78;2107531;28;20131;-72
2023/10/05 00:02:47;;;;;;;10.38;2.20;;;;;;;13.44;nan;100912.78;2101289;28;20052;-72
2023/10/05 00:03:52;;;;;;;8.77;2.60;;;;;;;13.45;nan;100913.59;2107721;28;20057;-72
2023/10/05 00:04:54;;;;;;;11.43;1.90;;;;;;;13.47;nan;100911.41;2107598;28;21055;-73
2023/10/05 00:06:13;;;;;;;9.85;1.80;;;;;;;13.49;nan;100917.31;2115953;28;20169;-72
2023/10/05 00:07:26;;;;;;;6.38;1.88;;;;;;;13.51;nan;100912.44;2107083;28;20020;-72
2023/10/05 00:08:28;;;;;;;7.85;2.05;;;;;;;13.51;nan;100917.03;2093483;28;20036;-72
2023/10/05 00:09:30;;;;;;;9.82;2.20;;;;;;;13.51;nan;100917.03;2099537;28;20087;-72
2023/10/05 00:10:33;;;;;;;12.02;2.28;;;;;;;13.49;nan;100913.81;2098536;28;20072;-73
2023/10/05 00:11:36;;;;;;;7.10;2.45;;;;;;;13.49;nan;100898.41;2090774;28;20038;-72
2023/10/05 00:12:38;;;;;;;8.18;2.30;;;;;;;13.47;nan;100908.72;2077873;28;20046;-72
2023/10/05 00:13:44;;;;;;;9.68;2.45;;;;;;;13.43;nan;100913.09;2091499;28;20026;-72
2023/10/05 00:14:48;;;;;;;10.80;2.20;;;;;;;13.40;nan;100916.38;2082938;28;20033;-72
2023/10/05 00:15:50;;;;;;;6.72;1.95;;;;;;;13.40;nan;100908.25;2083736;28;20096;-73
2023/10/05 00:16:55;;;;;;;8.63;2.45;;;;;;;13.43;nan;100907.69;2099122;28;20064;-72
2023/10/05 00:17:56;;;;;;;9.32;2.63;;;;;;;13.45;nan;100902.78;2082722;28;20056;-72
2023/10/05 00:18:58;;;;;;;8.20;2.30;;;;;;;13.42;nan;100906.06;2090670;28;20860;-73
2023/10/05 00:20:06;;;;;;;7.40;2.45;;;;;;;13.40;nan;100905.56;2099119;28;20088;-73
2023/10/05 00:21:08;;;;;;;7.55;2.10;;;;;;;13.37;nan;100895.34;2098966;28;20033;-73
2023/10/05 00:22:11;;;;;;;10.73;2.70;;;;;;;13.36;nan;100893.72;2090541;28;20756;-72
2023/10/05 00:23:13;;;;;;;8.88;2.50;;;;;;;13.36;nan;100893.72;2091240;28;20037;-72
2023/10/05 00:24:15;;;;;;;7.75;2.40;;;;;;;13.36;nan;100899.91;2090509;28;20030;-72
2023/10/05 00:25:17;;;;;;;7.55;2.22;;;;;;;13.37;nan;100889.94;2082969;28;20848;-72
2023/10/05 00:26:29;;;;;;;12.88;2.92;;;;;;;13.39;nan;100890.44;2099220;28;20071;-72
2023/10/05 00:27:32;;;;;;;7.88;2.17;;;;;;;13.39;nan;100895.84;2106204;28;20076;-72
2023/10/05 00:28:35;;;;;;;9.15;2.83;;;;;;;13.38;nan;100891.53;2090426;28;20042;-73
2023/10/05 00:29:40;;;;;;;14.18;2.45;;;;;;;13.38;nan;100886.94;2090809;28;20059;-72
2023/10/05 00:30:42;;;;;;;6.00;2.35;;;;;;;13.36;nan;100880.22;2098256;28;20068;-72
2023/10/05 00:31:44;;;;;;;9.88;2.58;;;;;;;13.37;nan;100881.84;2090459;28;20127;-72
2023/10/05 00:32:52;;;;;;;11.10;2.22;;;;;;;13.37;nan;100882.63;2082203;28;20148;-72
2023/10/05 00:33:56;;;;;;;8.75;2.00;;;;;;;13.38;nan;100880.72;2092351;28;20033;-72
2023/10/05 00:35:14;;;;;;;7.80;2.08;;;;;;;13.35;nan;100881.31;2098673;28;20768;-72
2023/10/05 00:36:17;;;;;;;8.55;2.40;;;;;;;13.33;nan;100881.59;2109934;28;20083;-72
2023/10/05 00:37:19;;;;;;;6.65;2.30;;;;;;;13.34;nan;100883.22;2107161;28;20729;-72
2023/10/05 00:38:23;;;;;;;8.80;2.03;;;;;;;13.34;nan;100875.09;2098895;28;20032;-73
2023/10/05 00:39:25;;;;;;;9.35;2.25;;;;;;;13.37;nan;100874.53;2098636;28;20127;-72
2023/10/05 00:40:35;;;;;;;9.65;2.17;;;;;;;13.38;nan;100875.31;2081759;28;20018;-72
2023/10/05 00:41:40;;;;;;;7.85;1.98;;;;;;;13.38;nan;100869.94;2100570;28;20759;-72
2023/10/05 00:42:42;;;;;;;9.48;2.25;;;;;;;13.35;nan;100875.91;2105621;28;20024;-72
2023/10/05 00:43:46;;;;;;;8.07;2.47;;;;;;;13.33;nan;100868.06;2090688;28;20152;-73
2023/10/05 00:44:54;;;;;;;11.52;2.28;;;;;;;13.32;nan;100865.69;2091242;28;20891;-72
2023/10/05 00:45:58;;;;;;;9.43;2.63;;;;;;;13.31;nan;100862.19;2099555;28;20106;-72
2023/10/05 00:47:00;;;;;;;8.90;2.25;;;;;;;13.29;nan;100855.47;2099024;28;20143;-73
2023/10/05 00:48:13;;;;;;;7.00;2.55;;;;;;;13.27;nan;100866.53;2098746;28;20075;-72
2023/10/05 00:49:19;;;;;;;6.30;1.92;;;;;;;13.29;nan;100861.66;2092322;28;20041;-73
2023/10/05 00:50:22;;;;;;;6.55;1.90;;;;;;;13.29;nan;100860.84;2093154;28;20022;-72
2023/10/05 00:51:26;;;;;;;11.32;2.28;;;;;;;13.27;nan;100857.63;2090229;28;20147;-73
2023/10/05 00:52:29;;;;;;;9.13;2.30;;;;;;;13.27;nan;100860.31;2099717;28;20037;-73
2023/10/05 00:53:32;;;;;;;6.90;2.20;;;;;;;13.26;nan;100850.63;2106797;28;20762;-73
2023/10/05 00:54:35;;;;;;;6.70;2.10;;;;;;;13.22;nan;100850.38;2107225;28;20025;-72
2023/10/05 00:55:39;;;;;;;10.65;2.28;;;;;;;13.20;nan;100853.34;2098325;28;20040;-73
2023/10/05 00:56:42;;;;;;;6.65;1.95;;;;;;;13.23;nan;100852.78;2074603;28;20077;-73
2023/10/05 00:57:46;;;;;;;7.97;2.20;;;;;;;13.23;nan;100849.28;2089504;28;20858;-74
2023/10/05 00:58:50;;;;;;;8.95;2.60;;;;;;;13.22;nan;100840.38;2098462;28;20842;-73
2023/10/05 01:00:26;;;;;;;10.45;2.42;;;;;;;13.25;nan;100846.34;2090649;28;20041;-73
2023/10/05 01:01:26;;;;;;;10.32;3.00;;;;;;;13.23;nan;100847.38;2093404;28;20819;-73
2023/10/05 01:02:32;;;;;;;9.00;2.05;;;;;;;13.21;nan;100841.47;2091324;28;20030;-73
2023/10/05 01:03:46;;;;;;;8.88;2.00;;;;;;;13.23;nan;100851.97;2091515;28;20041;-73
2023/10/05 01:05:00;;;;;;;6.63;2.30;;;;;;;13.24;nan;100842.81;2109229;28;20016;-73
2023/10/05 01:06:26;;;;;;;5.15;2.38;;;;;;;13.27;nan;100841.44;2098255;28;20041;-73
2023/10/05 01:08:04;;;;;;;9.38;2.13;;;;;;;13.29;nan;100836.56;2105472;28;20862;-73
2023/10/05 01:09:00;;;;;;;10.45;1.88;;;;;;;13.26;nan;100840.63;2095310;28;20039;-73
2023/10/05 01:11:14;;;;;;;7.53;2.28;;;;;;;13.14;nan;100816.72;2097379;28;20053;-73
2023/10/05 01:13:28;;;;;;;8.15;1.95;;;;;;;13.14;nan;100832.91;2097471;28;20155;-73
2023/10/05 01:14:51;;;;;;;9.18;2.83;;;;;;;13.16;nan;100832.63;2091416;28;20040;-72
2023/10/05 01:15:56;;;;;;;7.90;2.15;;;;;;;13.18;nan;100825.06;2093444;28;20036;-73
2023/10/05 01:16:58;;;;;;;6.72;2.13;;;;;;;13.14;nan;100842.91;2091340;28;20033;-72
2023/10/05 01:18:00;;;;;;;8.18;2.50;;;;;;;13.11;nan;100828.09;2098518;28;20040;-72
2023/10/05 01:19:07;;;;;;;7.03;2.33;;;;;;;13.09;nan;100824.88;2089976;28;20064;-73
2023/10/05 01:20:36;;;;;;;6.78;2.35;;;;;;;13.06;nan;100822.75;2084706;28;20065;-73
2023/10/05 01:21:39;;;;;;;7.50;1.88;;;;;;;13.08;nan;100815.19;2102075;28;20075;-72
2023/10/05 01:22:41;;;;;;;9.52;2.67;;;;;;;13.04;nan;100816.84;2090854;28;20036;-72
2023/10/05 01:23:48;;;;;;;7.50;2.13;;;;;;;13.02;nan;100816.34;2090597;28;20029;-73
2023/10/05 01:24:58;;;;;;;9.07;2.42;;;;;;;13.00;nan;100810.41;2098921;28;20860;-72
2023/10/05 01:26:00;;;;;;;11.85;2.67;;;;;;;13.02;nan;100818.22;2107394;28;20020;-72
2023/10/05 01:27:04;;;;;;;9.90;2.20;;;;;;;13.01;nan;100828.22;2115393;28;21418;-72
2023/10/05 01:28:07;;;;;;;8.00;2.55;;;;;;;12.98;nan;100813.38;2100969;28;20090;-72
2023/10/05 01:29:09;;;;;;;8.68;2.22;;;;;;;12.94;nan;100814.28;2082055;28;20033;-73
2023/10/05 01:30:12;;;;;;;8.27;2.20;;;;;;;12.91;nan;100812.16;2082510;28;20841;-72
2023/10/05 01:31:17;;;;;;;6.72;2.13;;;;;;;12.90;nan;100799.75;2106551;28;20045;-72
2023/10/05 01:32:21;;;;;;;6.53;2.25;;;;;;;12.86;nan;100815.72;2115387;28;20148;-72
2023/10/05 01:33:25;;;;;;;7.00;2.40;;;;;;;12.83;nan;100804.66;2107121;28;20037;-72
2023/10/05 01:34:29;;;;;;;6.45;2.20;;;;;;;12.80;nan;100794.44;2106850;28;20890;-72
2023/10/05 01:35:31;;;;;;;8.35;2.30;;;;;;;12.79;nan;100814.44;2082630;28;20149;-72
2023/10/05 01:36:34;;;;;;;9.68;2.40;;;;;;;12.81;nan;100802.28;2082310;28;20068;-72
2023/10/05 01:37:36;;;;;;;9.15;2.15;;;;;;;12.81;nan;100804.16;2098363;28;20867;-72
2023/10/05 01:38:44;;;;;;;9.05;2.80;;;;;;;12.81;nan;100812.25;2090536;28;20179;-72
2023/10/05 01:39:46;;;;;;;8.15;2.47;;;;;;;12.76;nan;100789.63;2083803;28;20030;-72
2023/10/05 01:40:54;;;;;;;7.70;2.28;;;;;;;12.83;nan;100810.91;2082047;28;20808;-72
2023/10/05 01:41:56;;;;;;;6.53;2.20;;;;;;;12.83;nan;100799.28;2099805;28;20029;-70
2023/10/05 01:43:02;;;;;;;6.25;2.03;;;;;;;12.82;nan;100792.28;2105589;28;20222;-70
2023/10/05 01:44:05;;;;;;;9.57;2.30;;;;;;;12.84;nan;100800.91;2106762;28;20215;-70
2023/10/05 01:45:10;;;;;;;8.20;2.45;;;;;;;12.82;nan;100798.47;2090123;28;20045;-70
2023/10/05 01:46:15;;;;;;;7.75;2.40;;;;;;;12.85;nan;100794.41;2092090;28;20048;-70
2023/10/05 01:47:17;;;;;;;7.20;2.35;;;;;;;12.80;nan;100789.06;2090057;28;20841;-70
2023/10/05 01:48:25;;;;;;;7.57;2.17;;;;;;;12.78;nan;100785.84;2081781;28;20133;-70
2023/10/05 01:49:27;;;;;;;10.48;2.95;;;;;;;12.79;nan;100782.06;2083522;28;20064;-71
2023/10/05 01:50:29;;;;;;;17.77;5.93;;;;;;;12.77;nan;100776.97;2091451;28;20067;-70
2023/10/05 01:51:33;;;;;;;8.02;2.42;;;;;;;12.76;nan;100781.53;2107239;28;20875;-70
2023/10/05 01:52:36;;;;;;;10.75;2.78;;;;;;;12.80;nan;100778.25;2098993;28;20025;-70
2023/10/05 01:53:39;;;;;;;6.07;2.10;;;;;;;12.78;nan;100775.88;2090296;28;21347;-70
2023/10/05 01:54:43;;;;;;;7.18;2.25;;;;;;;12.80;nan;100772.88;2082136;28;20042;-70
2023/10/05 01:55:50;;;;;;;8.25;2.67;;;;;;;12.79;nan;100774.75;2099278;28;20045;-70
2023/10/05 01:56:52;;;;;;;5.95;2.33;;;;;;;12.81;nan;100774.50;2115073;28;20110;-70
2023/10/05 01:57:58;;;;;;;7.70;2.33;;;;;;;12.77;nan;100774.28;2106592;28;20106;-70
2023/10/05 01:59:06;;;;;;;7.38;2.55;;;;;;;12.78;nan;100766.97;2105892;28;20123;-70
2023/10/05 02:00:14;;;;;;;9.32;2.60;;;;;;;12.76;nan;100767.25;2090896;28;20836;-70
2023/10/05 02:01:20;;;;;;;5.22;2.00;;;;;;;12.74;nan;100767.53;2098439;28;20032;-71
2023/10/05 02:02:26;;;;;;;5.22;2.47;;;;;;;12.74;nan;100769.44;2098892;28;20072;-70
2023/10/05 02:03:33;;;;;;;9.75;2.38;;;;;;;12.73;nan;100771.31;2098477;28;20047;-70
2023/10/05 02:04:44;;;;;;;7.78;2.47;;;;;;;12.69;nan;100767.59;2090721;28;20026;-70
2023/10/05 02:05:47;;;;;;;6.72;2.20;;;;;;;12.67;nan;100767.09;2092764;28;20033;-70
2023/10/05 02:06:53;;;;;;;8.63;2.97;;;;;;;12.66;nan;100759.28;2098391;28;20037;-70
2023/10/05 02:07:54;;;;;;;5.15;2.05;;;;;;;12.68;nan;100760.59;2090360;28;20084;-70
2023/10/05 02:08:59;;;;;;;11.90;2.50;;;;;;;12.68;nan;100757.09;2090375;28;20784;-71
2023/10/05 02:10:00;;;;;;;9.63;2.88;;;;;;;12.67;nan;100756.31;2090500;28;20030;-71
2023/10/05 02:11:04;;;;;;;5.30;2.22;;;;;;;12.65;nan;100758.47;2086902;28;20220;-71
2023/10/05 02:12:09;;;;;;;11.00;2.72;;;;;;;12.64;nan;100754.19;2082861;28;20073;-71
2023/10/05 02:13:12;;;;;;;12.23;3.20;;;;;;;12.69;nan;100756.81;2089850;28;20955;-71
2023/10/05 02:14:16;;;;;;;8.52;2.40;;;;;;;12.70;nan;100758.44;2089661;28;21239;-71
2023/10/05 02:15:19;;;;;;;6.75;2.17;;;;;;;12.73;nan;100747.03;2082503;28;20026;-70
2023/10/05 02:16:22;;;;;;;7.22;2.33;;;;;;;12.75;nan;100742.16;2081821;28;20038;-71
2023/10/05 02:17:29;;;;;;;7.68;2.08;;;;;;;12.74;nan;100748.66;2091873;28;20022;-72
2023/10/05 02:18:34;;;;;;;8.60;2.08;;;;;;;12.73;nan;100747.03;2090540;28;20041;-71
2023/10/05 02:19:38;;;;;;;7.75;2.50;;;;;;;12.69;nan;100748.72;2082150;28;20026;-72
2023/10/05 02:20:45;;;;;;;9.70;2.15;;;;;;;12.71;nan;100738.44;2090619;28;20754;-71
2023/10/05 02:21:52;;;;;;;4.30;2.15;;;;;;;12.72;nan;100747.34;2083346;28;20982;-71
2023/10/05 02:22:54;;;;;;;6.05;2.30;;;;;;;12.72;nan;100740.03;2091244;28;20068;-72
2023/10/05 02:23:57;;;;;;;12.52;2.22;;;;;;;12.71;nan;100738.44;2089888;28;20045;-71
2023/10/05 02:25:03;;;;;;;8.43;2.38;;;;;;;12.72;nan;100745.44;2098900;28;20071;-72
2023/10/05 02:26:23;;;;;;;11.23;2.28;;;;;;;12.70;nan;100738.72;2107590;28;20106;-72
2023/10/05 02:27:28;;;;;;;6.35;2.28;;;;;;;12.70;nan;100741.41;2100609;28;20024;-72
2023/10/05 02:28:33;;;;;;;10.63;2.33;;;;;;;12.72;nan;100728.44;2098191;28;20160;-73
2023/10/05 02:29:34;;;;;;;12.00;3.05;;;;;;;12.71;nan;100733.03;2089599;28;20081;-72
2023/10/05 02:30:37;;;;;;;7.93;2.35;;;;;;;12.73;nan;100730.03;2091237;28;20026;-72
2023/10/05 02:31:54;;;;;;;8.77;2.50;;;;;;;12.73;nan;100736.25;2090011;28;20030;-72
2023/10/05 02:32:59;;;;;;;5.40;1.95;;;;;;;12.72;nan;100740.03;2100493;28;20025;-72
2023/10/05 02:34:01;;;;;;;10.85;2.30;;;;;;;12.74;nan;100737.06;2107025;28;20048;-72
2023/10/05 02:35:18;;;;;;;7.35;2.25;;;;;;;12.74;nan;100742.47;2106336;28;20024;-72
2023/10/05 02:36:27;;;;;;;9.40;2.67;;;;;;;12.74;nan;100729.78;2092358;28;20064;-72
2023/10/05 02:37:28;;;;;;;9.50;2.30;;;;;;;12.73;nan;100730.03;2084071;28;20028;-72
2023/10/05 02:38:32;;;;;;;6.90;2.20;;;;;;;12.74;nan;100732.47;2083205;28;20144;-72
2023/10/05 02:39:39;;;;;;;7.13;2.35;;;;;;;12.74;nan;100720.88;2084910;28;20034;-72
2023/10/05 02:40:46;;;;;;;6.45;2.20;;;;;;;12.79;nan;100718.09;2102202;27;20884;-72
2023/10/05 02:41:50;;;;;;;10.38;2.58;;;;;;;12.82;nan;100716.72;2122868;27;20074;-72
2023/10/05 02:42:54;;;;;;;7.78;2.30;;;;;;;12.82;nan;100720.22;2091098;28;20208;-72
2023/10/05 02:43:59;;;;;;;10.15;2.83;;;;;;;12.81;nan;100717.81;2088570;28;20030;-72
2023/10/05 02:45:03;;;;;;;8.77;2.58;;;;;;;12.81;nan;100710.53;2091334;28;20021;-72
2023/10/05 02:46:11;;;;;;;6.10;2.63;;;;;;;12.83;nan;100710.22;2100159;28;20888;-72
2023/10/05 02:47:16;;;;;;;7.88;2.33;;;;;;;12.83;nan;100718.31;2093299;28;20037;-72
2023/10/05 02:48:25;;;;;;;9.05;2.13;;;;;;;12.83;nan;100712.94;2085670;28;20041;-72
2023/10/05 02:49:26;;;;;;;5.28;2.50;;;;;;;12.81;nan;100710.53;2084196;28;20030;-72
2023/10/05 02:50:29;;;;;;;8.18;2.28;;;;;;;12.80;nan;100713.50;2083253;28;20030;-71
2023/10/05 02:51:35;;;;;;;7.75;2.50;;;;;;;12.79;nan;100706.50;2100056;28;20095;-72
2023/10/05 02:52:42;;;;;;;7.57;2.22;;;;;;;12.78;nan;100708.41;2115304;28;20020;-72
2023/10/05 02:53:45;;;;;;;8.00;2.65;;;;;;;12.81;nan;100715.94;2107932;28;20024;-72
2023/10/05 02:54:49;;;;;;;9.77;2.75;;;;;;;12.78;nan;100700.31;2091207;28;20728;-72
2023/10/05 02:55:54;;;;;;;7.78;2.50;;;;;;;12.76;nan;100703.28;2084482;28;20892;-72
2023/10/05 02:56:56;;;;;;;6.78;2.35;;;;;;;12.78;nan;100713.00;2091959;28;20041;-73
2023/10/05 02:57:59;;;;;;;6.72;2.60;;;;;;;12.80;nan;100708.09;2091541;28;20022;-74
2023/10/05 02:59:07;;;;;;;8.80;2.15;;;;;;;12.81;nan;100699.75;2090339;28;20038;-72
2023/10/05 03:00:12;;;;;;;6.55;2.40;;;;;;;12.80;nan;100708.94;2092267;28;21358;-72
2023/10/05 03:01:15;;;;;;;8.90;2.67;;;;;;;12.82;nan;100701.34;2099445;28;20076;-72
2023/10/05 03:02:19;;;;;;;8.13;2.38;;;;;;;12.83;nan;100700.25;2083384;28;20149;-72
2023/10/05 03:03:22;;;;;;;6.18;2.10;;;;;;;12.82;nan;100712.13;2090842;28;20119;-71
2023/10/05 03:04:41;;;;;;;5.78;2.40;;;;;;;12.81;nan;100707.03;2091743;28;20033;-72
2023/10/05 03:05:43;;;;;;;6.50;2.28;;;;;;;12.78;nan;100700.31;2099406;28;20041;-72
2023/10/05 03:06:45;;;;;;;6.35;2.03;;;;;;;12.79;nan;100709.22;2090993;28;20076;-74
2023/10/05 03:07:48;;;;;;;7.00;2.38;;;;;;;12.78;nan;100710.31;2091640;28;20026;-72
2023/10/05 03:08:57;;;;;;;7.40;3.22;;;;;;;12.74;nan;100697.41;2099725;28;20120;-73
2023/10/05 03:09:59;;;;;;;8.80;2.50;;;;;;;12.76;nan;100702.50;2100387;28;20029;-72
2023/10/05 03:11:08;;;;;;;6.47;2.30;;;;;;;12.77;nan;100709.50;2100406;28;20898;-72
2023/10/05 03:12:11;;;;;;;12.10;2.42;;;;;;;12.77;nan;100706.81;2100221;28;20840;-73
2023/10/05 03:13:14;;;;;;;5.85;2.03;;;;;;;12.79;nan;100709.22;2083183;28;20030;-72
2023/10/05 03:14:21;;;;;;;6.90;2.85;;;;;;;12.76;nan;100703.28;2082795;28;21008;-72
2023/10/05 03:15:27;;;;;;;8.65;2.10;;;;;;;12.75;nan;100696.28;2084290;28;20120;-72
2023/10/05 03:16:29;;;;;;;7.05;2.08;;;;;;;12.79;nan;100698.41;2092853;28;20096;-72
2023/10/05 03:17:32;;;;;;;7.75;2.67;;;;;;;12.78;nan;100696.81;2099598;28;20056;-72
2023/10/05 03:18:37;;;;;;;8.43;2.53;;;;;;;12.78;nan;100694.91;2082983;28;20061;-73
2023/10/05 03:19:39;;;;;;;10.18;2.20;;;;;;;12.81;nan;100693.53;2075254;28;20135;-73
2023/10/05 03:20:44;;;;;;;10.00;2.42;;;;;;;12.82;nan;100695.13;2076221;28;20149;-72
2023/10/05 03:21:46;;;;;;;6.93;1.90;;;;;;;12.82;nan;100687.03;2099482;28;20021;-73
2023/10/05 03:22:47;;;;;;;7.70;2.30;;;;;;;12.82;nan;100695.13;2082826;28;20034;-72
2023/10/05 03:23:52;;;;;;;8.35;2.65;;;;;;;12.80;nan;100683.81;2091113;28;20030;-73
2023/10/05 03:24:56;;;;;;;7.10;2.60;;;;;;;12.78;nan;100694.13;2091431;28;20041;-73
2023/10/05 03:25:58;;;;;;;8.13;2.08;;;;;;;12.74;nan;100686.59;2091288;28;20041;-73
2023/10/05 03:27:03;;;;;;;7.88;2.38;;;;;;;12.76;nan;100686.31;2083218;28;20066;-73
2023/10/05 03:28:06;;;;;;;7.88;2.63;;;;;;;12.79;nan;100679.53;2092352;28;20102;-72
2023/10/05 03:29:11;;;;;;;9.45;2.40;;;;;;;12.81;nan;100682.75;2106189;28;20039;-74
2023/10/05 03:30:14;;;;;;;13.70;2.58;;;;;;;12.80;nan;100670.34;2090924;28;20032;-73
2023/10/05 03:31:32;;;;;;;5.97;2.45;;;;;;;12.82;nan;100668.97;2088886;28;20037;-74
2023/10/05 03:32:35;;;;;;;7.50;2.25;;;;;;;12.80;nan;100662.25;2103920;28;20043;-73
2023/10/05 03:33:39;;;;;;;6.13;2.40;;;;;;;12.82;nan;100668.16;2108177;28;20910;-73
2023/10/05 03:34:56;;;;;;;6.80;2.22;;;;;;;12.80;nan;100665.75;2099419;28;20724;-72
2023/10/05 03:36:00;;;;;;;9.43;2.25;;;;;;;12.85;nan;100659.47;2086924;28;20033;-73
2023/10/05 03:38:35;;;;;;;7.35;2.55;;;;;;;12.86;nan;100652.97;2092790;28;20079;-73
2023/10/05 03:39:48;;;;;;;8.30;2.30;;;;;;;12.88;nan;100654.31;2116124;28;20032;-74
2023/10/05 03:40:50;;;;;;;9.65;2.60;;;;;;;12.88;nan;100656.19;2098531;28;20089;-74
2023/10/05 03:41:52;;;;;;;7.55;2.30;;;;;;;12.92;nan;100663.41;2082905;28;20042;-74
2023/10/05 03:42:57;;;;;;;6.82;2.60;;;;;;;12.90;nan;100651.31;2082521;28;20871;-74
2023/10/05 03:44:03;;;;;;;8.77;2.42;;;;;;;12.88;nan;100648.09;2092441;28;20804;-73
2023/10/05 03:45:10;;;;;;;11.30;2.80;;;;;;;12.87;nan;100650.00;2100268;28;20025;-74
2023/10/05 03:46:12;;;;;;;5.63;2.40;;;;;;;12.85;nan;100646.00;2099518;28;20044;-73
2023/10/05 03:47:14;;;;;;;9.60;2.85;;;;;;;12.87;nan;100647.31;2090751;28;20123;-73
2023/10/05 03:48:19;;;;;;;8.63;2.58;;;;;;;12.83;nan;100649.00;2083155;28;20093;-73
2023/10/05 03:49:24;;;;;;;11.00;3.05;;;;;;;12.84;nan;100645.19;2091308;28;20045;-74
2023/10/05 03:50:29;;;;;;;7.70;2.50;;;;;;;12.83;nan;100645.47;2099713;28;20084;-74
2023/10/05 03:51:32;;;;;;;8.13;2.90;;;;;;;12.82;nan;100647.38;2097605;28;20025;-74
2023/10/05 03:52:33;;;;;;;8.35;2.42;;;;;;;12.75;nan;100642.34;2090752;28;20994;-74
2023/10/05 03:53:35;;;;;;;4.95;2.30;;;;;;;12.75;nan;100642.34;2082445;28;20053;-74
2023/10/05 03:54:38;;;;;;;7.95;3.38;;;;;;;12.78;nan;100640.97;2090724;28;20033;-74
2023/10/05 03:55:40;;;;;;;8.93;2.60;;;;;;;12.75;nan;100636.94;2082911;28;20111;-74
2023/10/05 03:56:42;;;;;;;8.73;2.50;;;;;;;12.76;nan;100638.53;2090729;28;20133;-74
2023/10/05 03:57:48;;;;;;;9.93;2.50;;;;;;;12.78;nan;100632.06;2090869;28;20037;-74
2023/10/05 03:58:54;;;;;;;7.00;2.63;;;;;;;12.80;nan;100627.16;2083086;28;20866;-73
2023/10/05 04:00:49;;;;;;;7.40;2.97;;;;;;;12.82;nan;100635.78;2105104;28;20036;-73
2023/10/05 04:01:24;;;;;;;6.55;2.95;;;;;;;12.76;nan;100630.44;2093784;28;20036;-73
2023/10/05 04:02:28;;;;;;;7.55;2.50;;;;;;;12.76;nan;100627.75;2099429;28;20076;-73
2023/10/05 04:03:30;;;;;;;8.05;3.03;;;;;;;12.74;nan;100621.84;2099257;28;20883;-73
2023/10/05 04:04:35;;;;;;;6.78;2.63;;;;;;;12.73;nan;100614.03;2090949;28;20034;-74
2023/10/05 04:05:40;;;;;;;8.45;2.78;;;;;;;12.66;nan;100609.00;2099414;28;20033;-74
2023/10/05 04:06:42;;;;;;;11.95;2.75;;;;;;;12.71;nan;100611.66;2083396;28;20092;-74
2023/10/05 04:07:44;;;;;;;7.20;2.95;;;;;;;12.73;nan;100603.25;2082085;28;20030;-73
2023/10/05 04:08:49;;;;;;;7.22;2.80;;;;;;;12.74;nan;100607.56;2082830;28;20880;-73
2023/10/05 04:09:52;;;;;;;8.77;2.90;;;;;;;12.74;nan;100612.97;2107690;28;20060;-71
2023/10/05 04:10:54;;;;;;;7.38;2.70;;;;;;;12.72;nan;100605.16;2115486;28;20047;-72
2023/10/05 04:11:56;;;;;;;7.57;2.85;;;;;;;12.71;nan;100606.25;2098820;28;20144;-72
2023/10/05 04:13:01;;;;;;;7.53;3.03;;;;;;;12.71;nan;100605.44;2099729;28;20105;-72
2023/10/05 04:14:05;;;;;;;8.73;2.80;;;;;;;12.68;nan;100597.94;2107721;28;20135;-71
2023/10/05 04:15:14;;;;;;;9.80;2.85;;;;;;;12.67;nan;100601.72;2090608;28;20813;-72
2023/10/05 04:16:26;;;;;;;7.70;2.67;;;;;;;12.68;nan;100590.66;2101191;28;20140;-72
2023/10/05 04:17:29;;;;;;;7.85;2.72;;;;;;;12.70;nan;100591.16;2107255;28;20137;-72
2023/10/05 04:18:31;;;;;;;8.98;2.90;;;;;;;12.70;nan;100591.16;2090531;28;20077;-72
2023/10/05 04:19:33;;;;;;;10.23;3.60;;;;;;;12.72;nan;100590.88;2082604;28;20033;-72
2023/10/05 04:20:35;;;;;;;7.47;2.75;;;;;;;12.73;nan;100592.47;2082314;28;20045;-72
2023/10/05 04:21:40;;;;;;;8.20;2.72;;;;;;;12.72;nan;100588.97;2098676;28;20151;-72
2023/10/05 04:22:42;;;;;;;10.68;2.90;;;;;;;12.72;nan;100594.34;2098723;28;20024;-72
2023/10/05 04:23:46;;;;;;;8.80;3.03;;;;;;;12.71;nan;100584.66;2090269;28;20148;-72
2023/10/05 04:24:50;;;;;;;9.02;3.17;;;;;;;12.69;nan;100584.16;2090676;28;20043;-71
2023/10/05 04:25:56;;;;;;;8.40;2.95;;;;;;;12.74;nan;100580.59;2091384;28;20916;-71
2023/10/05 04:26:57;;;;;;;7.43;2.83;;;;;;;12.73;nan;100587.84;2090552;28;20033;-72
2023/10/05 04:28:05;;;;;;;7.53;2.80;;;;;;;12.70;nan;100584.94;2084789;28;20042;-73
2023/10/05 04:29:08;;;;;;;10.95;3.08;;;;;;;12.68;nan;100581.75;2099047;28;20140;-73
2023/10/05 04:30:17;;;;;;;5.75;2.63;;;;;;;12.67;nan;100580.13;2097194;28;20083;-71
2023/10/05 04:31:26;;;;;;;8.48;2.67;;;;;;;12.67;nan;100586.34;2084405;28;20026;-72
2023/10/05 04:32:28;;;;;;;12.55;3.20;;;;;;;12.66;nan;100578.53;2099590;28;20048;-72
2023/10/05 04:33:31;;;;;;;6.65;2.72;;;;;;;12.64;nan;100578.84;2098799;28;20887;-71
2023/10/05 04:34:33;;;;;;;8.85;3.15;;;;;;;12.63;nan;100579.91;2082440;28;20030;-71
2023/10/05 04:35:42;;;;;;;10.60;3.03;;;;;;;12.65;nan;100577.75;2082818;28;20068;-71
2023/10/05 04:37:04;;;;;;;11.48;2.92;;;;;;;12.68;nan;100576.34;2091827;28;20891;-71
2023/10/05 04:38:05;;;;;;;7.45;2.75;;;;;;;12.63;nan;100579.91;2084061;28;20033;-72
2023/10/05 04:39:12;;;;;;;11.02;2.78;;;;;;;12.63;nan;100571.81;2074015;28;20065;-72
2023/10/05 04:40:15;;;;;;;7.90;2.60;;;;;;;12.63;nan;100585.31;2090629;28;20935;-73
2023/10/05 04:41:19;;;;;;;7.53;2.50;;;;;;;12.64;nan;100576.16;2086665;28;20139;-72
2023/10/05 04:42:21;;;;;;;9.98;3.17;;;;;;;12.64;nan;100569.94;2099896;28;20860;-72
2023/10/05 04:43:23;;;;;;;8.98;2.92;;;;;;;12.67;nan;100569.34;2098408;28;20064;-72
2023/10/05 04:44:24;;;;;;;8.60;2.72;;;;;;;12.63;nan;100566.44;2098840;28;20064;-72
2023/10/05 04:45:27;;;;;;;7.97;2.63;;;;;;;12.62;nan;100559.44;2097848;28;20028;-72
2023/10/05 04:46:31;;;;;;;7.53;3.05;;;;;;;12.65;nan;100572.34;2090227;28;21236;-73
2023/10/05 04:47:33;;;;;;;11.80;3.50;;;;;;;12.66;nan;100567.75;2066194;28;20847;-73
2023/10/05 04:48:34;;;;;;;8.80;3.03;;;;;;;12.62;nan;100556.75;2082248;28;20105;-73
2023/10/05 04:49:38;;;;;;;8.25;3.15;;;;;;;12.64;nan;100565.34;2090706;28;20147;-73
2023/10/05 04:50:43;;;;;;;9.35;2.58;;;;;;;12.65;nan;100564.25;2098083;28;20110;-73
2023/10/05 04:51:45;;;;;;;9.15;2.53;;;;;;;12.63;nan;100565.63;2106544;28;20858;-72
2023/10/05 04:52:51;;;;;;;9.10;2.53;;;;;;;12.63;nan;100565.63;2115510;28;20159;-73
2023/10/05 04:53:54;;;;;;;8.90;2.83;;;;;;;12.64;nan;100554.56;2106833;28;20886;-73
2023/10/05 04:54:59;;;;;;;11.13;3.17;;;;;;;12.64;nan;100559.97;2091048;28;20979;-73
2023/10/05 04:56:14;;;;;;;7.72;2.45;;;;;;;12.64;nan;100557.25;2099157;28;20036;-72
2023/10/05 04:57:34;;;;;;;11.00;2.72;;;;;;;12.67;nan;100556.69;2115722;28;20052;-73
2023/10/05 05:01:04;;;;;;;9.18;3.10;;;;;;;12.60;nan;100555.44;2107972;28;20163;-72
2023/10/05 05:01:35;;;;;;;10.98;3.00;;;;;;;12.55;nan;100547.41;2103922;28;20075;-73
2023/10/05 05:04:27;;;;;;;10.82;3.17;;;;;;;12.59;nan;100549.25;2111248;27;20052;-75
2023/10/05 05:07:10;;;;;;;9.57;3.00;;;;;;;12.65;nan;100529.19;2086284;28;20032;-73
2023/10/05 05:08:16;;;;;;;10.10;2.63;;;;;;;12.65;nan;100529.19;2089205;28;20048;-73
2023/10/05 05:09:21;;;;;;;7.18;2.78;;;;;;;12.64;nan;100527.59;2096306;27;20069;-73
2023/10/05 05:10:25;;;;;;;10.00;2.65;;;;;;;12.62;nan;100527.06;2105737;28;21282;-72
2023/10/05 05:11:26;;;;;;;8.55;2.88;;;;;;;12.58;nan;100526.06;2092917;28;20036;-74
2023/10/05 05:12:31;;;;;;;9.35;2.95;;;;;;;12.58;nan;100519.84;2090202;28;20862;-74
2023/10/05 05:13:35;;;;;;;9.80;3.03;;;;;;;12.55;nan;100518.56;2098055;28;20078;-73
2023/10/05 05:14:44;;;;;;;11.07;2.97;;;;;;;12.55;nan;100509.63;2089746;28;20033;-74
2023/10/05 05:15:51;;;;;;;9.38;3.10;;;;;;;12.63;nan;100511.69;2092035;28;20034;-74
2023/10/05 05:16:58;;;;;;;12.30;2.97;;;;;;;12.64;nan;100502.50;2105874;28;20859;-73
2023/10/05 05:18:00;;;;;;;11.23;3.10;;;;;;;12.60;nan;100515.75;2105457;28;20047;-73
2023/10/05 05:19:03;;;;;;;8.70;3.47;;;;;;;12.53;nan;100518.03;2108180;28;20214;-73